Time;durP1;ratioP1;P1;durP2;ratioP2;P2;SDS_P1;SDS_P2;PMS_P1;PMS_P2;Temp;Humidity;BMP_temperature;BMP_pressure;BME280_temperature;BME280_humidity;BME280_pressure;Samples;Min_cycle;Max_cycle;Signal;HPM_P1;HPM_P2
2024/03/31 00:01:18;;;;;;;25.17;5.80;;;9.80;3.70;;;;;;5030792;28;20240;-69
2024/03/31 00:03:44;;;;;;;12.63;5.17;;;9.80;3.70;;;;;;5030672;28;20253;-69
2024/03/31 00:06:11;;;;;;;14.23;6.47;;;9.80;4.30;;;;;;5030713;28;20700;-69
2024/03/31 00:08:37;;;;;;;16.27;5.97;;;9.90;3.80;;;;;;5029311;28;20445;-69
2024/03/31 00:11:06;;;;;;;18.40;6.17;;;9.90;3.20;;;;;;5030627;28;20904;-69
2024/03/31 00:13:32;;;;;;;18.70;5.93;;;9.90;3.00;;;;;;5030496;28;20946;-69
2024/03/31 00:15:59;;;;;;;11.73;5.73;;;9.90;3.20;;;;;;5030594;28;20564;-70
2024/03/31 00:18:25;;;;;;;8.57;4.40;;;9.90;3.10;;;;;;5030524;28;20580;-69
2024/03/31 00:20:54;;;;;;;20.07;5.80;;;10.00;2.40;;;;;;5030591;28;20496;-69
2024/03/31 00:23:20;;;;;;;29.13;7.83;;;10.00;2.30;;;;;;5029405;28;20499;-68
2024/03/31 00:25:46;;;;;;;10.47;4.80;;;9.90;4.00;;;;;;5030551;28;20414;-69
2024/03/31 00:28:11;;;;;;;14.50;7.13;;;9.90;3.90;;;;;;5030306;28;20427;-69
2024/03/31 00:30:37;;;;;;;14.20;4.53;;;9.90;3.20;;;;;;5029264;28;20184;-68
2024/03/31 00:33:03;;;;;;;11.00;4.57;;;9.90;3.30;;;;;;5030442;28;20715;-68
2024/03/31 00:35:28;;;;;;;12.50;4.53;;;10.00;2.10;;;;;;5030358;28;20190;-68
2024/03/31 00:37:54;;;;;;;15.77;5.00;;;10.00;2.10;;;;;;5030390;28;20213;-68
2024/03/31 00:40:19;;;;;;;14.83;4.17;;;10.00;2.10;;;;;;5030438;28;20214;-68
2024/03/31 00:42:48;;;;;;;8.97;3.60;;;10.10;2.60;;;;;;5030738;28;20613;-68
2024/03/31 00:45:16;;;;;;;10.83;3.83;;;10.10;3.80;;;;;;5030414;28;20168;-68
2024/03/31 00:47:41;;;;;;;7.10;3.50;;;10.10;4.00;;;;;;5030032;28;20429;-68
2024/03/31 00:50:07;;;;;;;17.43;3.90;;;10.10;4.70;;;;;;5028881;28;20979;-69
2024/03/31 00:52:32;;;;;;;13.67;5.53;;;10.10;4.30;;;;;;5030522;28;20325;-68
2024/03/31 00:54:58;;;;;;;17.23;3.60;;;10.10;4.30;;;;;;5028753;28;20179;-68
2024/03/31 00:57:23;;;;;;;8.33;2.77;;;10.10;3.80;;;;;;5030309;28;20630;-70
2024/03/31 00:59:49;;;;;;;12.80;3.53;;;10.10;3.80;;;;;;5029985;28;20214;-70
2024/03/31 01:02:15;;;;;;;7.17;3.47;;;10.10;3.60;;;;;;5030665;28;20175;-69
2024/03/31 01:04:40;;;;;;;9.37;2.47;;;10.10;4.30;;;;;;5033671;28;20254;-69
2024/03/31 01:07:09;;;;;;;9.73;3.10;;;10.20;2.30;;;;;;5036978;28;20189;-69
2024/03/31 01:09:34;;;;;;;13.33;4.00;;;10.30;1.30;;;;;;5038149;28;20237;-69
2024/03/31 01:12:00;;;;;;;19.27;3.90;;;10.30;1.00;;;;;;5042757;28;20434;-70
2024/03/31 01:14:26;;;;;;;13.93;2.40;;;10.40;1.00;;;;;;5036444;28;20245;-69
2024/03/31 01:16:51;;;;;;;8.23;2.27;;;10.40;1.00;;;;;;5033727;28;20285;-69
2024/03/31 01:19:19;;;;;;;5.93;2.30;;;10.40;1.00;;;;;;5033352;28;20249;-69
2024/03/31 01:21:46;;;;;;;13.67;3.93;;;10.50;1.00;;;;;;5033751;28;20198;-69
2024/03/31 01:24:11;;;;;;;10.87;2.30;;;10.40;1.00;;;;;;5033604;28;20538;-69
2024/03/31 01:26:37;;;;;;;12.47;3.30;;;10.40;1.00;;;;;;5033317;28;20418;-69
2024/03/31 01:29:03;;;;;;;10.77;2.67;;;10.40;1.00;;;;;;5033037;28;20256;-69
2024/03/31 01:31:28;;;;;;;10.27;2.60;;;10.40;1.00;;;;;;5033371;28;20670;-69
2024/03/31 01:33:54;;;;;;;13.33;2.73;;;10.40;1.00;;;;;;5031825;28;20191;-69
2024/03/31 01:36:20;;;;;;;12.00;2.40;;;10.40;1.00;;;;;;5033441;28;20241;-69
2024/03/31 01:38:45;;;;;;;6.57;2.40;;;10.40;1.00;;;;;;5032941;28;21034;-69
2024/03/31 01:41:11;;;;;;;10.00;2.80;;;10.40;1.00;;;;;;5033658;28;20179;-69
2024/03/31 01:43:37;;;;;;;16.80;3.07;;;10.40;1.00;;;;;;5033666;28;20248;-67
2024/03/31 01:46:02;;;;;;;17.00;3.27;;;10.40;1.00;;;;;;5033583;28;20238;-68
2024/03/31 01:48:28;;;;;;;9.00;3.27;;;10.30;1.00;;;;;;5031677;28;20301;-69
2024/03/31 01:50:53;;;;;;;17.00;3.50;;;10.30;1.00;;;;;;5033430;28;20210;-68
2024/03/31 01:53:19;;;;;;;8.27;2.87;;;10.20;1.00;;;;;;5032830;28;20233;-68
2024/03/31 01:55:45;;;;;;;9.43;2.70;;;10.20;1.00;;;;;;5033317;28;20191;-68
2024/03/31 01:58:10;;;;;;;8.83;3.03;;;10.20;1.00;;;;;;5032328;28;20633;-68
2024/03/31 02:00:36;;;;;;;3.10;1.90;;;10.20;1.00;;;;;;5031132;28;20619;-69
2024/03/31 02:03:02;;;;;;;11.23;3.47;;;10.10;1.00;;;;;;5032619;28;20172;-69
2024/03/31 02:05:27;;;;;;;14.53;3.43;;;10.00;3.10;;;;;;5032508;28;20230;-69
2024/03/31 02:07:53;;;;;;;13.33;3.60;;;10.00;3.40;;;;;;5032382;28;20267;-69
2024/03/31 02:10:18;;;;;;;11.70;4.23;;;10.00;3.20;;;;;;5032556;28;20674;-69
2024/03/31 02:12:44;;;;;;;20.47;5.10;;;10.00;4.00;;;;;;5032467;28;20523;-69
2024/03/31 02:15:09;;;;;;;12.13;6.07;;;9.90;5.00;;;;;;5031198;28;20232;-70
2024/03/31 02:17:35;;;;;;;12.20;4.43;;;9.70;5.80;;;;;;5032210;28;20257;-69
2024/03/31 02:20:00;;;;;;;13.60;4.80;;;9.60;6.40;;;;;;5031741;28;20245;-70
2024/03/31 02:22:26;;;;;;;16.83;5.30;;;9.60;6.70;;;;;;5032253;28;20240;-70
2024/03/31 02:24:52;;;;;;;15.10;4.87;;;9.60;6.10;;;;;;5032052;28;20658;-69
2024/03/31 02:27:17;;;;;;;12.43;5.13;;;9.60;5.70;;;;;;5032206;28;20186;-69
2024/03/31 02:29:43;;;;;;;10.40;4.67;;;9.60;5.70;;;;;;5031893;28;20199;-69
2024/03/31 02:32:08;;;;;;;7.83;3.93;;;9.60;5.80;;;;;;5031826;28;20273;-69
2024/03/31 02:34:34;;;;;;;18.43;4.70;;;9.50;6.20;;;;;;5031833;28;20726;-70
2024/03/31 02:36:59;;;;;;;8.93;4.00;;;9.40;6.90;;;;;;5032345;28;20692;-69
2024/03/31 02:39:25;;;;;;;13.80;3.67;;;9.40;7.20;;;;;;5031515;28;20232;-69
2024/03/31 02:41:51;;;;;;;9.60;3.50;;;9.30;8.00;;;;;;5032143;28;20537;-69
2024/03/31 02:44:18;;;;;;;12.83;4.70;;;9.20;9.40;;;;;;5031746;28;20177;-69
2024/03/31 02:46:45;;;;;;;13.90;2.80;;;9.10;9.80;;;;;;5031842;28;20413;-69
2024/03/31 02:49:10;;;;;;;8.87;3.50;;;9.00;11.40;;;;;;5031785;28;20798;-69
2024/03/31 02:51:36;;;;;;;23.07;3.80;;;8.90;11.30;;;;;;5031868;28;20424;-69
2024/03/31 02:54:01;;;;;;;11.10;2.80;;;8.80;10.80;;;;;;5031725;28;20180;-69
2024/03/31 02:56:27;;;;;;;11.03;2.93;;;8.60;11.40;;;;;;5031763;28;20259;-68
2024/03/31 02:58:53;;;;;;;24.37;4.90;;;8.50;12.40;;;;;;5031398;28;20556;-69
2024/03/31 03:01:19;;;;;;;8.03;2.70;;;8.40;13.20;;;;;;5031628;28;20213;-69
2024/03/31 03:03:45;;;;;;;10.27;3.33;;;8.30;13.40;;;;;;5031982;28;20990;-68
2024/03/31 03:06:11;;;;;;;13.20;3.10;;;8.30;13.70;;;;;;5031647;28;20180;-69
2024/03/31 03:08:39;;;;;;;8.93;3.07;;;8.20;13.60;;;;;;5031790;28;20507;-69
2024/03/31 03:11:04;;;;;;;15.80;3.67;;;8.00;14.30;;;;;;5031491;28;20415;-69
2024/03/31 03:13:30;;;;;;;17.30;3.13;;;8.00;15.70;;;;;;5033477;28;20427;-68
2024/03/31 03:15:56;;;;;;;10.73;3.53;;;8.00;15.40;;;;;;5031454;28;20175;-69
2024/03/31 03:18:22;;;;;;;7.60;3.20;;;8.00;16.50;;;;;;5031126;28;20208;-69
2024/03/31 03:20:48;;;;;;;10.87;3.83;;;7.80;17.50;;;;;;5031359;28;20176;-68
2024/03/31 03:23:14;;;;;;;8.80;3.27;;;7.60;19.50;;;;;;5030037;28;20419;-69
2024/03/31 03:25:39;;;;;;;16.53;2.43;;;7.50;20.60;;;;;;5031186;28;20559;-69
2024/03/31 03:28:05;;;;;;;10.30;2.70;;;7.50;21.70;;;;;;5030682;28;20510;-69
2024/03/31 03:30:32;;;;;;;8.03;3.00;;;7.40;22.90;;;;;;5031119;28;20175;-69
2024/03/31 03:32:57;;;;;;;9.30;3.40;;;7.30;22.80;;;;;;5031158;28;20419;-69
2024/03/31 03:35:26;;;;;;;9.27;3.37;;;7.30;22.40;;;;;;5031029;28;20945;-69
2024/03/31 03:37:51;;;;;;;10.67;3.50;;;7.20;23.80;;;;;;5030664;28;22056;-69
2024/03/31 03:40:17;;;;;;;12.90;5.17;;;7.10;25.60;;;;;;5056282;22;21024;-71
2024/03/31 03:42:42;;;;;;;12.40;5.00;;;7.10;26.90;;;;;;5031433;28;20649;-70
2024/03/31 03:45:09;;;;;;;12.00;4.33;;;7.10;27.90;;;;;;5032416;28;20180;-71
2024/03/31 03:47:34;;;;;;;11.87;5.60;;;7.00;28.20;;;;;;5032709;28;20167;-70
2024/03/31 03:50:00;;;;;;;12.30;4.43;;;7.00;28.50;;;;;;5045797;28;20444;-71
2024/03/31 03:52:25;;;;;;;7.67;3.40;;;7.00;28.60;;;;;;5051934;28;20288;-70
2024/03/31 03:54:51;;;;;;;8.63;3.70;;;6.90;28.30;;;;;;5050946;28;20260;-71
2024/03/31 03:57:16;;;;;;;12.23;4.77;;;6.90;27.70;;;;;;5052963;28;20186;-71
2024/03/31 03:59:42;;;;;;;11.50;4.87;;;6.90;29.50;;;;;;5051829;28;20234;-70
2024/03/31 04:02:07;;;;;;;17.13;3.83;;;6.90;29.50;;;;;;5051019;28;20649;-70
2024/03/31 04:04:33;;;;;;;16.70;6.57;;;6.90;29.60;;;;;;5052876;28;20171;-71
2024/03/31 04:07:00;;;;;;;8.70;4.40;;;6.90;29.90;;;;;;5051807;28;20261;-71
2024/03/31 04:09:26;;;;;;;12.90;4.90;;;6.90;29.60;;;;;;5052149;28;20277;-71
2024/03/31 04:11:51;;;;;;;11.87;4.60;;;6.90;29.70;;;;;;5051917;28;20929;-72
2024/03/31 04:14:17;;;;;;;13.80;3.93;;;6.90;30.00;;;;;;5051843;28;20178;-71
2024/03/31 04:16:45;;;;;;;8.10;4.00;;;6.80;29.20;;;;;;5051860;28;20232;-72
2024/03/31 04:19:11;;;;;;;17.60;5.83;;;6.80;29.50;;;;;;5051496;28;20629;-73
2024/03/31 04:21:36;;;;;;;19.67;3.63;;;6.80;28.70;;;;;;5051896;28;20421;-72
2024/03/31 04:24:02;;;;;;;7.47;3.83;;;6.70;29.50;;;;;;5050426;28;20183;-72
2024/03/31 04:26:28;;;;;;;8.70;3.80;;;6.70;28.50;;;;;;5050326;28;20281;-71
2024/03/31 04:28:53;;;;;;;10.97;3.97;;;6.60;28.20;;;;;;5050232;28;20453;-71
2024/03/31 04:31:19;;;;;;;12.27;4.00;;;6.50;28.30;;;;;;5051709;28;20186;-72
2024/03/31 04:33:45;;;;;;;16.83;3.90;;;6.50;28.10;;;;;;5052071;28;20667;-72
2024/03/31 04:36:14;;;;;;;5.93;3.07;;;6.50;29.80;;;;;;5051501;28;20500;-72
2024/03/31 04:38:40;;;;;;;10.63;3.90;;;6.50;29.70;;;;;;5052642;28;20221;-71
2024/03/31 04:41:06;;;;;;;8.10;2.93;;;6.40;30.30;;;;;;5055744;28;20716;-72
2024/03/31 04:43:32;;;;;;;17.03;5.30;;;6.40;30.60;;;;;;5055437;28;20416;-72
2024/03/31 04:46:10;;;;;;;6.93;3.53;;;6.40;31.40;;;;;;5054222;28;20428;-72
2024/03/31 04:48:37;;;;;;;7.70;3.23;;;6.30;31.80;;;;;;5054123;28;20490;-72
2024/03/31 04:51:07;;;;;;;9.97;3.33;;;6.30;31.10;;;;;;5053860;28;21143;-71
2024/03/31 04:53:33;;;;;;;8.70;4.57;;;6.30;31.80;;;;;;5054246;28;20409;-73
2024/03/31 04:56:03;;;;;;;7.83;3.40;;;6.30;31.20;;;;;;5055241;28;20440;-72
2024/03/31 04:58:29;;;;;;;12.63;2.97;;;6.20;31.90;;;;;;5055194;28;20460;-72
2024/03/31 05:00:55;;;;;;;8.67;3.07;;;6.30;31.70;;;;;;5055405;28;20780;-72
2024/03/31 05:03:25;;;;;;;14.07;4.10;;;6.30;31.00;;;;;;5055191;28;20448;-72
2024/03/31 05:05:51;;;;;;;10.27;3.50;;;6.30;30.80;;;;;;5054785;28;20413;-72
2024/03/31 05:08:16;;;;;;;15.93;3.20;;;6.30;30.80;;;;;;5054886;28;20420;-73
2024/03/31 05:10:53;;;;;;;8.83;3.30;;;6.30;30.40;;;;;;5053721;28;20420;-73
2024/03/31 05:13:18;;;;;;;9.27;3.30;;;6.30;30.00;;;;;;5054784;28;20653;-71
2024/03/31 05:15:44;;;;;;;7.57;3.00;;;6.30;29.20;;;;;;5054942;28;20412;-72
2024/03/31 05:18:09;;;;;;;26.17;3.47;;;6.30;29.20;;;;;;5054571;28;20258;-73
2024/03/31 05:20:35;;;;;;;5.80;2.50;;;6.30;29.20;;;;;;5054573;28;20205;-72
2024/03/31 05:23:00;;;;;;;10.27;3.20;;;6.30;29.20;;;;;;5053291;28;20281;-73
2024/03/31 05:25:26;;;;;;;11.50;4.27;;;6.40;29.20;;;;;;5054618;28;20245;-71
2024/03/31 05:27:52;;;;;;;10.30;2.43;;;6.50;27.00;;;;;;5054628;28;20169;-72
2024/03/31 05:30:22;;;;;;;9.87;3.10;;;6.60;25.40;;;;;;5054402;28;20225;-72
2024/03/31 05:32:47;;;;;;;7.63;3.77;;;6.70;23.90;;;;;;5054512;28;20196;-72
2024/03/31 05:35:13;;;;;;;12.97;3.90;;;6.70;21.90;;;;;;5054373;28;20915;-71
2024/03/31 05:37:38;;;;;;;13.07;3.60;;;6.80;21.90;;;;;;5053440;28;20182;-74
2024/03/31 05:40:04;;;;;;;16.33;4.00;;;6.80;22.30;;;;;;5054120;28;20222;-71
2024/03/31 05:42:30;;;;;;;14.60;7.10;;;6.90;22.10;;;;;;5054635;28;20174;-71
2024/03/31 05:44:55;;;;;;;8.87;3.23;;;6.90;22.20;;;;;;5052782;28;20425;-72
2024/03/31 05:47:21;;;;;;;8.60;3.60;;;6.90;21.90;;;;;;5054038;28;20182;-72
2024/03/31 05:49:46;;;;;;;14.77;3.40;;;7.00;21.40;;;;;;5053561;28;20199;-72
2024/03/31 05:52:12;;;;;;;8.13;3.23;;;7.00;21.40;;;;;;5054128;28;20255;-71
2024/03/31 05:54:37;;;;;;;8.97;2.30;;;7.10;22.00;;;;;;5054119;28;20186;-71
2024/03/31 05:57:03;;;;;;;14.07;2.50;;;7.30;21.60;;;;;;5052734;28;20183;-71
2024/03/31 05:59:28;;;;;;;10.53;3.20;;;7.40;20.30;;;;;;5052377;28;20217;-71
2024/03/31 06:01:54;;;;;;;9.77;3.60;;;7.50;18.10;;;;;;5054037;28;20705;-73
2024/03/31 06:04:19;;;;;;;11.43;3.00;;;7.60;19.10;;;;;;5053819;28;20215;-72
2024/03/31 06:06:45;;;;;;;10.47;4.60;;;7.90;17.80;;;;;;5052196;28;20275;-71
2024/03/31 06:09:10;;;;;;;10.53;4.20;;;8.10;17.30;;;;;;5053640;28;20433;-73
2024/03/31 06:11:36;;;;;;;9.40;3.30;;;8.30;14.40;;;;;;5052468;28;20184;-73
2024/03/31 06:14:02;;;;;;;6.17;3.37;;;8.50;12.00;;;;;;5053517;28;20180;-73
2024/03/31 06:16:27;;;;;;;9.27;3.13;;;8.60;10.20;;;;;;5052478;28;20177;-73
2024/03/31 06:18:53;;;;;;;13.30;3.83;;;8.90;8.00;;;;;;5051996;28;20462;-74
2024/03/31 06:21:18;;;;;;;9.13;4.70;;;9.10;6.30;;;;;;5053680;28;20243;-72
2024/03/31 06:23:47;;;;;;;11.47;3.53;;;9.30;5.50;;;;;;5053590;28;20262;-73
2024/03/31 06:26:12;;;;;;;5.10;2.83;;;10.10;3.70;;;;;;5053517;28;20260;-73
2024/03/31 06:28:38;;;;;;;8.77;3.40;;;11.00;1.00;;;;;;5053139;28;20591;-72
2024/03/31 06:31:07;;;;;;;7.93;3.83;;;12.00;1.00;;;;;;5053459;28;20190;-73
2024/03/31 06:33:32;;;;;;;13.80;4.33;;;12.80;1.00;;;;;;5053524;28;20313;-73
2024/03/31 06:35:58;;;;;;;9.97;3.40;;;;;;;;;;5053337;28;20903;-72
2024/03/31 06:38:24;;;;;;;7.67;3.63;;;14.20;1.00;;;;;;5050655;28;20204;-71
2024/03/31 06:40:49;;;;;;;12.93;3.80;;;14.90;1.00;;;;;;5047716;28;20430;-72
2024/03/31 06:43:15;;;;;;;6.73;3.27;;;14.90;1.00;;;;;;5058042;28;20355;-73
2024/03/31 06:45:40;;;;;;;10.83;3.77;;;14.80;1.00;;;;;;5057024;28;20171;-75
2024/03/31 06:48:06;;;;;;;7.43;2.87;;;14.10;1.00;;;;;;5058308;28;20183;-73
2024/03/31 06:50:35;;;;;;;13.97;3.53;;;14.00;1.00;;;;;;5051701;28;20233;-73
2024/03/31 06:53:01;;;;;;;8.23;2.93;;;;;;;;;;5052919;28;20186;-73
2024/03/31 06:55:26;;;;;;;7.33;3.30;;;14.80;1.00;;;;;;5052224;28;20782;-75
2024/03/31 06:57:52;;;;;;;19.87;5.90;;;15.20;1.00;;;;;;5056727;28;20427;-74
2024/03/31 07:00:17;;;;;;;7.43;3.53;;;15.00;1.00;;;;;;5053663;28;20201;-73
2024/03/31 07:02:49;;;;;;;11.97;4.27;;;14.90;1.00;;;;;;5055743;28;20186;-73
2024/03/31 07:05:15;;;;;;;10.13;4.63;;;15.10;1.00;;;;;;5055279;28;20214;-73
2024/03/31 07:07:41;;;;;;;7.03;4.30;;;15.20;1.00;;;;;;5056660;28;20417;-75
2024/03/31 07:10:07;;;;;;;15.23;4.63;;;15.70;1.00;;;;;;5052476;28;20210;-73
2024/03/31 07:12:32;;;;;;;12.97;3.43;;;17.10;1.00;;;;;;5053117;28;20467;-74
2024/03/31 07:14:58;;;;;;;10.97;5.37;;;;;;;;;;5061783;28;20213;-74
2024/03/31 07:17:24;;;;;;;10.03;4.87;;;;;;;;;;5055269;28;20599;-74
2024/03/31 07:19:50;;;;;;;8.03;3.97;;;23.20;1.00;;;;;;5045520;28;20999;-74
2024/03/31 07:22:15;;;;;;;9.30;4.40;;;23.10;1.00;;;;;;5049385;28;20786;-74
2024/03/31 07:24:41;;;;;;;18.77;4.87;;;;;;;;;;5050514;28;20210;-73
2024/03/31 07:27:08;;;;;;;16.07;5.00;;;;;;;;;;5054340;28;20182;-74
2024/03/31 07:29:34;;;;;;;10.70;4.30;;;;;;;;;;5056740;28;20513;-74
2024/03/31 07:32:00;;;;;;;7.93;4.53;;;18.60;1.00;;;;;;5050825;28;20441;-74
2024/03/31 07:34:30;;;;;;;10.87;4.00;;;;;;;;;;5058294;28;20457;-74
2024/03/31 07:36:55;;;;;;;12.30;4.60;;;16.50;1.00;;;;;;5056104;28;20182;-74
2024/03/31 07:39:21;;;;;;;17.53;3.80;;;15.90;1.00;;;;;;5060894;28;20842;-77
2024/03/31 07:41:46;;;;;;;14.13;4.30;;;15.50;1.00;;;;;;5048258;28;20189;-75
2024/03/31 07:44:13;;;;;;;16.03;4.40;;;15.00;1.00;;;;;;5051575;28;20244;-69
2024/03/31 07:46:39;;;;;;;8.73;3.53;;;14.70;1.00;;;;;;5053241;28;20175;-74
2024/03/31 07:49:04;;;;;;;11.50;4.50;;;14.50;1.00;;;;;;5051969;28;20939;-73
2024/03/31 07:51:30;;;;;;;13.77;5.60;;;14.10;1.00;;;;;;5052400;28;20183;-75
2024/03/31 07:53:55;;;;;;;8.17;4.37;;;14.00;1.00;;;;;;5056884;28;20182;-74
2024/03/31 07:56:21;;;;;;;6.57;3.07;;;14.30;1.00;;;;;;5054262;28;20269;-74
2024/03/31 07:58:46;;;;;;;7.07;3.97;;;14.60;1.00;;;;;;5056494;28;20210;-75
2024/03/31 08:01:12;;;;;;;15.10;3.80;;;15.00;1.00;;;;;;5059096;28;20231;-73
2024/03/31 08:03:37;;;;;;;13.17;4.17;;;15.10;1.00;;;;;;5052011;28;20175;-74
2024/03/31 08:06:03;;;;;;;10.77;3.80;;;15.20;1.00;;;;;;5046573;28;20194;-74
2024/03/31 08:08:28;;;;;;;9.87;3.93;;;15.50;1.00;;;;;;5054534;28;20197;-75
2024/03/31 08:10:54;;;;;;;8.33;3.83;;;15.20;1.00;;;;;;5052605;28;20212;-73
2024/03/31 08:13:20;;;;;;;11.13;4.57;;;15.80;1.00;;;;;;5048530;28;20186;-73
2024/03/31 08:15:45;;;;;;;7.93;3.83;;;16.20;1.00;;;;;;5049544;28;20190;-73
2024/03/31 08:18:12;;;;;;;12.77;4.60;;;16.90;1.00;;;;;;5058213;28;20202;-70
2024/03/31 08:20:37;;;;;;;19.77;4.80;;;16.90;1.00;;;;;;5083187;28;20182;-71
2024/03/31 08:23:03;;;;;;;10.60;4.63;;;;;;;;;;5076576;28;20429;-70
2024/03/31 08:25:29;;;;;;;11.60;3.80;;;;;;;;;;5062036;28;20190;-71
2024/03/31 08:27:55;;;;;;;17.50;4.70;;;18.80;1.00;;;;;;5054441;28;20424;-70
2024/03/31 08:30:20;;;;;;;12.13;5.23;;;20.10;1.00;;;;;;5056703;28;20441;-71
2024/03/31 08:32:47;;;;;;;16.90;3.50;;;;;;;;;;5061387;28;20185;-71
2024/03/31 08:35:13;;;;;;;9.80;3.17;;;21.50;5.20;;;;;;5065447;28;20231;-70
2024/03/31 08:37:38;;;;;;;20.13;5.00;;;19.90;1.00;;;;;;5067003;28;20432;-70
2024/03/31 08:40:05;;;;;;;10.27;5.00;;;18.70;1.00;;;;;;5057884;28;20476;-70
2024/03/31 08:43:05;;;;;;;9.73;4.70;;;18.00;1.00;;;;;;5060460;28;20187;-69
2024/03/31 08:45:34;;;;;;;10.20;4.53;;;18.00;1.00;;;;;;5077387;28;20429;-71
2024/03/31 08:48:00;;;;;;;16.93;4.87;;;17.50;1.00;;;;;;5059826;28;20444;-70
2024/03/31 08:50:26;;;;;;;10.90;3.30;;;17.40;1.00;;;;;;5063996;28;20791;-70
2024/03/31 08:52:52;;;;;;;17.87;5.47;;;17.30;1.00;;;;;;5059481;28;20443;-72
2024/03/31 08:55:18;;;;;;;19.90;3.77;;;16.40;1.00;;;;;;5062025;28;21065;-70
2024/03/31 08:57:44;;;;;;;7.40;4.17;;;16.20;1.00;;;;;;5061708;28;20425;-70
2024/03/31 09:00:11;;;;;;;5.73;3.67;;;15.80;1.00;;;;;;5060525;28;20277;-68
2024/03/31 09:02:38;;;;;;;13.33;4.30;;;15.60;1.00;;;;;;5043000;28;20452;-70
2024/03/31 09:05:04;;;;;;;11.53;3.93;;;15.80;1.00;;;;;;5060589;28;20427;-73
2024/03/31 09:07:31;;;;;;;9.40;3.70;;;15.60;1.00;;;;;;5055580;28;20421;-71
2024/03/31 09:09:57;;;;;;;11.90;4.30;;;15.40;1.00;;;;;;5054371;28;20437;-70
2024/03/31 09:12:23;;;;;;;10.63;3.93;;;15.60;1.00;;;;;;5054279;28;20421;-69
2024/03/31 09:14:48;;;;;;;11.73;3.77;;;15.60;1.00;;;;;;5053546;28;20269;-70
2024/03/31 09:17:14;;;;;;;17.30;4.27;;;15.60;1.00;;;;;;5054436;28;20592;-72
2024/03/31 09:19:40;;;;;;;14.67;5.47;;;15.40;1.00;;;;;;5054036;28;20202;-71
2024/03/31 09:22:07;;;;;;;13.40;4.33;;;15.40;1.00;;;;;;5054650;28;20419;-70
2024/03/31 09:24:33;;;;;;;11.07;4.60;;;15.50;1.00;;;;;;5053538;28;20417;-71
2024/03/31 09:26:59;;;;;;;7.30;3.90;;;15.40;1.00;;;;;;5056063;28;20436;-71
2024/03/31 09:29:27;;;;;;;13.63;3.60;;;15.70;1.00;;;;;;5052566;28;20456;-70
2024/03/31 09:32:04;;;;;;;23.23;4.43;;;15.60;1.00;;;;;;5052751;28;20502;-71
2024/03/31 09:34:29;;;;;;;8.03;3.43;;;15.60;1.00;;;;;;5052808;28;20437;-69
2024/03/31 09:36:55;;;;;;;14.20;4.60;;;15.70;1.00;;;;;;5053746;28;20420;-70
2024/03/31 09:39:21;;;;;;;13.10;4.80;;;15.90;1.00;;;;;;5053253;28;20715;-69
2024/03/31 09:41:49;;;;;;;11.43;4.17;;;15.90;1.00;;;;;;5148152;23;20493;-73
2024/03/31 09:44:15;;;;;;;11.23;4.63;;;15.90;1.00;;;;;;5027933;28;20182;-71
2024/03/31 09:46:41;;;;;;;9.07;4.30;;;15.80;1.00;;;;;;5031412;28;20450;-71
2024/03/31 09:49:10;;;;;;;12.03;4.40;;;15.80;1.00;;;;;;5033259;28;20907;-69
2024/03/31 09:51:41;;;;;;;11.67;5.07;;;15.90;1.00;;;;;;5035770;28;20195;-69
2024/03/31 09:54:08;;;;;;;10.37;4.67;;;16.30;1.00;;;;;;5053139;28;20508;-69
2024/03/31 09:56:51;;;;;;;11.83;3.00;;;16.50;1.00;;;;;;5065323;28;20416;-70
2024/03/31 09:59:21;;;;;;;13.17;4.33;;;16.70;1.00;;;;;;5074567;28;20933;-69
2024/03/31 10:01:47;;;;;;;5.60;3.27;;;16.90;1.00;;;;;;5057580;28;20534;-70
2024/03/31 10:04:19;;;;;;;16.53;5.93;;;17.10;1.00;;;;;;5035421;28;20420;-70
2024/03/31 10:06:46;;;;;;;12.03;3.40;;;17.20;1.00;;;;;;5062936;28;20412;-69
2024/03/31 10:09:12;;;;;;;7.07;3.37;;;17.20;1.00;;;;;;5054553;28;20748;-69
2024/03/31 10:11:39;;;;;;;12.63;3.87;;;16.90;1.00;;;;;;5052504;28;20432;-69
2024/03/31 10:14:06;;;;;;;11.43;3.87;;;16.90;1.00;;;;;;5049349;28;20467;-69
2024/03/31 10:16:35;;;;;;;10.20;3.40;;;17.10;1.00;;;;;;5052947;28;20513;-70
2024/03/31 10:19:01;;;;;;;9.67;3.77;;;17.10;1.00;;;;;;5052390;28;20453;-69
2024/03/31 10:21:29;;;;;;;23.87;5.43;;;17.00;1.00;;;;;;5064400;28;20515;-69
2024/03/31 10:23:55;;;;;;;9.60;3.70;;;17.10;1.00;;;;;;5051806;28;20483;-69
2024/03/31 10:26:22;;;;;;;14.97;2.93;;;17.20;1.00;;;;;;5055339;28;20441;-69
2024/03/31 10:28:50;;;;;;;9.87;4.30;;;17.20;1.00;;;;;;5049288;28;20531;-69
2024/03/31 10:31:17;;;;;;;27.93;4.50;;;17.50;1.00;;;;;;5052233;28;20452;-69
2024/03/31 10:33:53;;;;;;;14.37;3.80;;;17.60;1.00;;;;;;5067951;28;20422;-69
2024/03/31 10:36:21;;;;;;;7.03;4.57;;;17.70;1.00;;;;;;5080721;28;20439;-69
2024/03/31 10:38:46;;;;;;;13.10;3.77;;;17.90;1.00;;;;;;5045368;28;20462;-69
2024/03/31 10:41:12;;;;;;;9.57;3.47;;;17.90;1.00;;;;;;5036781;28;20426;-69
2024/03/31 10:43:39;;;;;;;6.50;3.47;;;18.10;1.00;;;;;;5074971;28;20189;-70
2024/03/31 10:46:06;;;;;;;10.13;3.80;;;18.40;1.90;;;;;;5072390;28;20424;-70
2024/03/31 10:48:33;;;;;;;14.80;4.53;;;18.40;2.40;;;;;;5072423;28;20507;-70
2024/03/31 10:51:14;;;;;;;15.20;4.90;;;18.40;2.40;;;;;;5072976;28;20772;-70
2024/03/31 10:53:42;;;;;;;14.10;4.67;;;18.40;3.10;;;;;;5074221;28;20815;-72
2024/03/31 10:56:08;;;;;;;6.77;3.50;;;18.60;1.00;;;;;;5068462;28;20444;-71
2024/03/31 10:58:34;;;;;;;10.70;3.20;;;18.80;2.70;;;;;;5052816;28;20457;-71
2024/03/31 11:01:02;;;;;;;7.70;3.53;;;18.80;4.20;;;;;;5052987;28;20642;-69
2024/03/31 11:03:30;;;;;;;6.47;4.20;;;18.70;4.70;;;;;;5069251;28;20200;-69
2024/03/31 11:05:55;;;;;;;10.43;4.00;;;18.40;1.00;;;;;;5065453;28;20515;-68
2024/03/31 11:08:21;;;;;;;8.67;3.33;;;18.30;1.00;;;;;;5044407;28;20512;-68
2024/03/31 11:10:47;;;;;;;17.83;3.87;;;18.40;1.00;;;;;;5051565;28;20175;-69
2024/03/31 11:13:15;;;;;;;12.93;3.50;;;;;;;;;;5048655;28;20202;-68
2024/03/31 11:15:41;;;;;;;11.33;4.40;;;;;;;;;;5040387;28;20545;-68
2024/03/31 11:18:10;;;;;;;11.77;4.97;;;18.70;1.20;;;;;;5032199;28;20408;-69
2024/03/31 11:20:44;;;;;;;10.90;3.10;;;18.50;1.00;;;;;;5038800;28;20418;-68
2024/03/31 11:23:12;;;;;;;12.73;4.00;;;18.20;1.60;;;;;;5073356;28;20546;-71
2024/03/31 11:25:40;;;;;;;15.40;3.80;;;18.30;1.00;;;;;;5072890;28;20415;-70
2024/03/31 11:28:06;;;;;;;8.93;3.33;;;18.70;4.00;;;;;;5053954;28;20901;-69
2024/03/31 11:30:32;;;;;;;12.80;4.43;;;;;;;;;;5038462;28;20450;-69
2024/03/31 11:33:02;;;;;;;13.07;4.43;;;;;;;;;;5073177;28;20432;-69
2024/03/31 11:35:29;;;;;;;10.10;4.10;;;;;;;;;;5072624;28;20723;-69
2024/03/31 11:38:00;;;;;;;10.63;3.70;;;;;;;;;;5072009;28;20481;-71
2024/03/31 11:40:26;;;;;;;13.63;3.53;;;20.10;1.00;;;;;;5071599;28;20412;-71
2024/03/31 11:42:51;;;;;;;21.43;6.50;;;20.40;1.00;;;;;;5052754;28;20776;-69
2024/03/31 11:45:17;;;;;;;7.13;3.90;;;20.30;1.00;;;;;;5051814;28;20312;-69
2024/03/31 11:47:43;;;;;;;5.93;3.30;;;20.80;1.00;;;;;;5051647;28;20225;-69
2024/03/31 11:50:09;;;;;;;14.70;3.90;;;20.90;1.00;;;;;;5052177;28;20186;-69
2024/03/31 11:52:34;;;;;;;9.67;3.10;;;21.10;1.00;;;;;;5050651;28;20595;-71
2024/03/31 11:55:00;;;;;;;9.50;4.10;;;20.80;1.00;;;;;;5069298;28;20190;-72
2024/03/31 11:57:26;;;;;;;7.70;4.53;;;20.70;1.00;;;;;;5071356;28;20186;-68
2024/03/31 11:59:55;;;;;;;9.03;4.80;;;20.90;1.00;;;;;;5072101;28;20209;-69
2024/03/31 12:02:21;;;;;;;7.80;3.37;;;20.70;1.00;;;;;;5071897;28;20205;-70
2024/03/31 12:04:49;;;;;;;7.23;3.53;;;20.70;1.00;;;;;;5070687;28;20424;-70
2024/03/31 12:07:16;;;;;;;8.03;3.60;;;20.60;1.00;;;;;;5071390;28;20232;-71
2024/03/31 12:09:41;;;;;;;7.83;4.03;;;20.60;1.00;;;;;;5070635;28;20505;-70
2024/03/31 12:12:07;;;;;;;17.17;4.50;;;;;;;;;;5070380;28;20452;-70
2024/03/31 12:14:33;;;;;;;14.40;4.37;;;;;;;;;;5070451;28;20185;-70
2024/03/31 12:16:59;;;;;;;9.00;3.63;;;;;;;;;;5054621;28;20417;-70
2024/03/31 12:19:25;;;;;;;16.23;5.70;;;20.70;1.00;;;;;;5050552;28;20618;-70
2024/03/31 12:21:51;;;;;;;9.43;3.83;;;21.20;1.00;;;;;;5050250;28;20444;-70
2024/03/31 12:24:17;;;;;;;7.30;4.60;;;21.60;1.00;;;;;;5049961;28;20187;-69
2024/03/31 12:26:43;;;;;;;8.10;4.10;;;21.80;1.00;;;;;;5050332;28;20579;-68
2024/03/31 12:29:17;;;;;;;7.73;4.00;;;21.70;1.00;;;;;;5048872;28;20539;-69
2024/03/31 12:31:43;;;;;;;7.73;3.60;;;21.90;1.00;;;;;;5050222;28;20560;-69
2024/03/31 12:34:09;;;;;;;9.03;4.40;;;22.10;1.00;;;;;;5050338;28;20417;-69
2024/03/31 12:36:35;;;;;;;10.93;3.63;;;22.00;1.00;;;;;;5050089;28;20182;-69
2024/03/31 12:39:00;;;;;;;9.37;3.50;;;21.80;1.00;;;;;;5054007;28;20470;-68
2024/03/31 12:41:26;;;;;;;18.67;5.40;;;21.70;1.00;;;;;;5069977;28;20209;-69
2024/03/31 12:44:01;;;;;;;8.97;4.80;;;21.70;1.00;;;;;;5070100;28;20184;-69
2024/03/31 12:46:28;;;;;;;5.10;4.00;;;21.80;1.00;;;;;;5070295;28;20185;-70
2024/03/31 12:48:54;;;;;;;8.60;4.60;;;21.70;1.00;;;;;;5069435;28;20420;-70
2024/03/31 12:51:21;;;;;;;9.43;4.30;;;21.60;1.00;;;;;;5070176;28;20280;-70
2024/03/31 12:53:47;;;;;;;12.10;3.80;;;21.30;1.00;;;;;;5070117;28;20174;-69